Impacts METAR Board
IDs:

KACT - Waco Rgnl, TX, US

Updated at: 2200 UTC 29 May 2020
Potential Impact None Slight Moderate High
Time 29/10Z 29/11Z 29/12Z 29/13Z 29/14Z 29/15Z 29/16Z 29/17Z 29/18Z 29/19Z 29/20Z 29/21Z 29/22Z
Temp68 67 67 69 72 76 79 83 85 87 87 87 88
Dewpt65 64 63 64 65 64 64 61 59 57 58 58 57
Altim30.06 30.08 30.10 30.12 30.14 30.14 30.13 30.13 30.13 30.13 30.12 30.12 30.11
VIS10 10 10 10 10 10 10 10 10 10 10 10 10
CIG-- -- -- -- -- -- -- -- -- -- -- -- --
CoverSCTSCTCLRCLRCLRCLRCLRCLRCLRCLRCLRCLRCLR
FltCatVFRVFRVFRVFRVFRVFRVFRVFRVFRVFRVFRVFRVFR
WX--------------------------
WDir330350340350104020305040503040
WSpd6 6 6 7 10 11 10 13 12 15 11 7 7
WGst-- -- -- -- -- -- -- 20 -- 20 18 -- --
Raw hourly METARs
KACT 290951Z 33006KT 10SM SCT049 20/18 A3006 RMK AO2 SLP173 T02000183
KACT 291051Z 35006KT 10SM SCT040 19/18 A3008 RMK AO2 SLP179 T01940178
KACT 291151Z 34006KT 10SM CLR 19/17 A3010 RMK AO2 SLP187 60000 T01940172 10211 20189 53020
KACT 291251Z 35007KT 10SM CLR 21/18 A3012 RMK AO2 SLP192 T02060178
KACT 291351Z 01010KT 10SM CLR 22/18 A3014 RMK AO2 RAB15E25B45E48 SLP199 P0000 T02220183
KACT 291451Z 04011KT 10SM CLR 24/18 A3014 RMK AO2 SLP200 60000 T02440178 51013
KACT 291551Z 02010KT 10SM CLR 26/18 A3013 RMK AO2 SLP196 T02610178
KACT 291651Z 03013G20KT 10SM CLR 28/16 A3013 RMK AO2 SLP195 T02830161
KACT 291751Z 05012KT 10SM CLR 29/15 A3013 RMK AO2 SLP194 60000 T02940150 10294 20194 56006
KACT 291851Z 04015G20KT 10SM CLR 31/14 A3013 RMK AO2 SLP193 T03060139
KACT 291951Z 05011G18KT 10SM CLR 31/14 A3012 RMK AO2 SLP194 T03060144
KACT 292051Z 03007KT 10SM CLR 31/14 A3012 RMK AO2 SLP192 T03060144 58002
KACT 292151Z 04007KT 10SM CLR 31/14 A3011 RMK AO2 SLP188 T03110139